Ali Cat — MZCL8 — position and weather

sailwx.info

Track history (hours):
 
Tides and Currents Weather Stations Pressure Air Temp Water Temp Dewpoint Dewpoint Depression Visibility Wind Speed Wind Dir Waves Ship Positions

Ali Cat

Operator: MRCC Clyde

Last reported at 2019-Sep-17 07:40 UTC. Time now 2019-Sep-17 08:27 UTC.
Position N 55°58' W 004°50'.

Length 19 m.

Type: Passenger vessel. MMSI: 235056506.

Date/timePositionNaut miles runAvg speedWind from/ knotsBaromVisibWave heightAir tempDewpointWater temp
2019-Sep-17 07:40N 55°58' W 004°50'210.0
2019-Sep-17 07:30N 55°57' W 004°52'1 1.1
2019-Sep-17 06:32N 55°58' W 004°51'110.1
2019-Sep-17 06:28N 55°57' W 004°52'1 1.6
2019-Sep-17 06:00N 55°57' W 004°53'1 0.1
2019-Sep-16 20:54N 55°58' W 004°51'2 4.6
2019-Sep-16 20:30N 55°57' W 004°54'3 3.3
2019-Sep-16 19:40N 55°58' W 004°49'210.9
2019-Sep-16 19:30N 55°57' W 004°52'2 2.2
2019-Sep-16 18:40N 55°58' W 004°49'210.3
2019-Sep-16 18:29N 55°57' W 004°53'2 2.5
2019-Sep-16 17:41N 55°58' W 004°49'210.7
2019-Sep-16 17:29N 55°57' W 004°53'2 1.8
2019-Sep-16 16:38N 55°58' W 004°50'110.1
2019-Sep-16 16:31N 55°57' W 004°52'1 1.1
2019-Sep-16 15:37N 55°58' W 004°51'110.1
2019-Sep-16 15:30N 55°57' W 004°53'2 1.5
2019-Sep-16 14:12N 55°58' W 004°49'210.1
2019-Sep-16 14:00N 55°57' W 004°53'2 2.5
2019-Sep-16 13:11N 55°58' W 004°49'210.2
2019-Sep-16 13:00N 55°57' W 004°52'1 0.4
2019-Sep-16 11:34N 55°57' W 004°52'110.2
2019-Sep-16 11:30N 55°57' W 004°53'2 2.4
2019-Sep-16 10:40N 55°58' W 004°50'210.5
2019-Sep-16 10:30N 55°57' W 004°53'1 1.4
2019-Sep-16 09:37N 55°58' W 004°51'110.5
2019-Sep-16 09:29N 55°57' W 004°53'2 1.9
2019-Sep-16 08:38N 55°58' W 004°50'110.2
2019-Sep-16 08:30N 55°57' W 004°52'1 1.0
2019-Sep-16 07:36N 55°58' W 004°51'1 9.8
2019-Sep-16 07:29N 55°57' W 004°53'2 2.7
2019-Sep-16 06:37N 55°58' W 004°49'110.1
2019-Sep-16 06:30N 55°57' W 004°51'0 0.0
2019-Sep-15 16:06N 55°58' W 004°51'110.5
2019-Sep-15 15:59N 55°57' W 004°53'2 2.6
2019-Sep-15 15:11N 55°58' W 004°49'210.5
2019-Sep-15 15:00N 55°57' W 004°52'1 1.1
2019-Sep-15 14:06N 55°58' W 004°51'110.3
2019-Sep-15 13:59N 55°57' W 004°53'2 1.8
2019-Sep-15 13:08N 55°58' W 004°50'110.3
2019-Sep-15 12:59N 55°57' W 004°53'1 0.1
2019-Sep-14 20:54N 55°58' W 004°51'1 0.9
2019-Sep-14 19:27N 55°57' W 004°53'2 2.7
2019-Sep-14 18:39N 55°58' W 004°49'210.9
2019-Sep-14 18:28N 55°57' W 004°53'0 0.3
2019-Sep-14 17:30N 55°57' W 004°52'0 0.3
2019-Sep-14 16:28N 55°57' W 004°53'1 1.3
2019-Sep-14 15:35N 55°57' W 004°51'110.9
2019-Sep-14 15:28N 55°57' W 004°53'2 0.3
2019-Sep-14 08:41N 55°58' W 004°50'211.5
2019-Sep-14 08:30N 55°57' W 004°53'2 1.9
2019-Sep-14 07:37N 55°58' W 004°50'211.4
2019-Sep-14 07:29N 55°57' W 004°53'1 2.7
2019-Sep-14 06:59N 55°58' W 004°51'1 1.3
2019-Sep-14 06:29N 55°57' W 004°52'1 1.2
2019-Sep-14 05:56N 55°58' W 004°51'0 0.0
2019-Sep-13 20:57N 55°58' W 004°51'2 3.4
2019-Sep-13 20:27N 55°57' W 004°54'2 1.8
2019-Sep-13 19:36N 55°58' W 004°51'110.1
2019-Sep-13 19:29N 55°57' W 004°53'1 2.4
2019-Sep-13 18:58N 55°58' W 004°51'1 2.4
2019-Sep-13 18:30N 55°57' W 004°52'1 1.2
2019-Sep-13 17:37N 55°58' W 004°51'1 9.7
2019-Sep-13 17:30N 55°57' W 004°53'2 2.8
2019-Sep-13 16:45N 55°58' W 004°49'2 9.3
2019-Sep-13 16:30N 55°57' W 004°53'2 2.9
2019-Sep-13 15:59N 55°58' W 004°51'2 3.4
2019-Sep-13 15:31N 55°57' W 004°53'2 3.1
2019-Sep-13 14:58N 55°58' W 004°50'0 0.4
2019-Sep-13 14:13N 55°58' W 004°50'2 9.6
2019-Sep-13 14:00N 55°57' W 004°53'1 1.5
2019-Sep-13 13:07N 55°57' W 004°51'1 9.5
2019-Sep-13 13:00N 55°57' W 004°53'1 0.5
2019-Sep-13 11:33N 55°57' W 004°52'110.4
2019-Sep-13 11:29N 55°57' W 004°53'1 1.6
2019-Sep-13 10:37N 55°58' W 004°50'110.5
2019-Sep-13 10:30N 55°57' W 004°52'0 0.3
2019-Sep-13 09:33N 55°57' W 004°52'110.3
2019-Sep-13 09:29N 55°57' W 004°53'1 2.8
2019-Sep-13 08:59N 55°58' W 004°51'1 2.9
2019-Sep-13 08:30N 55°57' W 004°53'1 1.9
2019-Sep-13 08:00N 55°58' W 004°52'1 1.4
2019-Sep-13 07:30N 55°57' W 004°53'2 2.2
2019-Sep-13 06:36N 55°58' W 004°49'110.1
2019-Sep-13 06:28N 55°57' W 004°51'1 1.7
2019-Sep-13 05:59N 55°58' W 004°53'1 0.1
2019-Sep-12 20:54N 55°58' W 004°51'2 5.6
2019-Sep-12 20:30N 55°57' W 004°55'3 3.9
2019-Sep-12 19:41N 55°58' W 004°49'211.1
2019-Sep-12 19:30N 55°57' W 004°53'2 1.9
2019-Sep-12 18:38N 55°58' W 004°50'210.6
2019-Sep-12 18:29N 55°57' W 004°53'1 1.3
2019-Sep-12 17:35N 55°58' W 004°51'110.7
2019-Sep-12 17:29N 55°57' W 004°53'1 1.8
2019-Sep-12 16:38N 55°58' W 004°50'110.2
2019-Sep-12 16:30N 55°57' W 004°53'2 3.3
2019-Sep-12 15:53N 55°58' W 004°49'2 5.2
2019-Sep-12 15:30N 55°57' W 004°53'2 1.5
2019-Sep-12 14:11N 55°58' W 004°49'2 9.9
2019-Sep-12 14:00N 55°57' W 004°53'2 2.7
2019-Sep-12 13:13N 55°58' W 004°49'2 9.9
2019-Sep-12 13:00N 55°57' W 004°52'1 0.8
2019-Sep-12 11:36N 55°58' W 004°51'110.3
2019-Sep-12 11:29N 55°57' W 004°53'1 1.1
2019-Sep-12 10:36N 55°57' W 004°51'110.5
2019-Sep-12 10:30N 55°57' W 004°53'1 0.8
2019-Sep-12 09:35N 55°58' W 004°51'110.4
2019-Sep-12 09:30N 55°57' W 004°53'2 1.8
2019-Sep-12 08:38N 55°58' W 004°50'110.5
2019-Sep-12 08:29N 55°57' W 004°53'2 2.7
2019-Sep-12 07:42N 55°58' W 004°49'210.2
2019-Sep-12 07:30N 55°57' W 004°53'1 1.2
2019-Sep-12 06:33N 55°58' W 004°51'110.1
2019-Sep-12 06:28N 55°57' W 004°52'2 0.2
2019-Sep-11 21:00N 55°58' W 004°49'3 6.2
2019-Sep-11 20:30N 55°57' W 004°55'3 3.5
2019-Sep-11 19:39N 55°58' W 004°49'211.2
2019-Sep-11 19:30N 55°57' W 004°52'2 2.4
2019-Sep-11 18:41N 55°58' W 004°49'211.0
2019-Sep-11 18:30N 55°57' W 004°53'2 2.2
2019-Sep-11 17:41N 55°58' W 004°50'210.5
2019-Sep-11 17:30N 55°57' W 004°53'0 0.2
2019-Sep-11 16:31N 55°57' W 004°52'010.3
2019-Sep-11 16:30N 55°57' W 004°52'1 0.9
2019-Sep-11 15:35N 55°57' W 004°51'110.3
2019-Sep-11 15:30N 55°57' W 004°53'1 2.0
2019-Sep-11 15:00N 55°58' W 004°51'1 1.6
2019-Sep-11 14:15N 55°58' W 004°49'2 9.6
2019-Sep-11 14:00N 55°57' W 004°53'2 2.2
2019-Sep-11 13:08N 55°58' W 004°50'110.0
2019-Sep-11 13:01N 55°57' W 004°52'2 1.4
2019-Sep-11 11:41N 55°58' W 004°49'210.4
2019-Sep-11 11:29N 55°57' W 004°53'2 2.2
2019-Sep-11 10:39N 55°58' W 004°50'210.8
2019-Sep-11 10:28N 55°57' W 004°53'2 2.7
2019-Sep-11 09:40N 55°58' W 004°49'210.7
2019-Sep-11 09:30N 55°57' W 004°52'1 1.0
2019-Sep-11 08:35N 55°58' W 004°51'110.8
2019-Sep-11 08:30N 55°57' W 004°52'2 1.7
2019-Sep-11 07:39N 55°58' W 004°50'211.1
2019-Sep-11 07:30N 55°57' W 004°52'0 0.3
2019-Sep-11 06:29N 55°57' W 004°52'1 0.1
2019-Sep-10 19:38N 55°58' W 004°51'211.8
2019-Sep-10 19:30N 55°57' W 004°53'2 1.8
2019-Sep-10 18:37N 55°58' W 004°51'111.8
2019-Sep-10 18:30N 55°58' W 004°53'1 0.8
2019-Sep-10 17:34N 55°58' W 004°51'111.7
2019-Sep-10 17:30N 55°57' W 004°53'1 0.5
2019-Sep-10 16:32N 55°57' W 004°52'111.4
2019-Sep-10 16:28N 55°57' W 004°53'1 1.3
2019-Sep-10 15:35N 55°58' W 004°51'110.6
2019-Sep-10 15:31N 55°57' W 004°52'0 0.1
2019-Sep-10 11:32N 55°57' W 004°52'110.9
2019-Sep-10 11:29N 55°57' W 004°53'1 1.3
2019-Sep-10 10:36N 55°58' W 004°51'110.5
2019-Sep-10 10:30N 55°57' W 004°53'2 2.0
2019-Sep-10 09:39N 55°58' W 004°50'210.4
2019-Sep-10 09:29N 55°57' W 004°53'1 2.3
2019-Sep-10 08:58N 55°58' W 004°51'1 2.8
2019-Sep-10 08:30N 55°57' W 004°53'2 2.1
2019-Sep-10 07:39N 55°58' W 004°50'210.7
2019-Sep-10 07:29N 55°57' W 004°53'2 2.5
2019-Sep-10 06:36N 55°58' W 004°49'110.6
2019-Sep-10 06:29N 55°57' W 004°51'1 1.2
2019-Sep-10 05:59N 55°57' W 004°52'0 0.0
2019-Sep-09 20:51N 55°57' W 004°53'2 3.5
2019-Sep-09 20:11N 55°58' W 004°49'210.7
2019-Sep-09 19:59N 55°57' W 004°53'1 1.7
2019-Sep-09 19:08N 55°58' W 004°50'110.4
2019-Sep-09 19:00N 55°57' W 004°53'1 0.9
2019-Sep-09 18:03N 55°57' W 004°51'110.4
2019-Sep-09 17:58N 55°57' W 004°53'1 1.5
2019-Sep-09 17:06N 55°58' W 004°51'110.4
2019-Sep-09 16:59N 55°57' W 004°53'1 1.6
2019-Sep-09 16:08N 55°58' W 004°50'110.4
2019-Sep-09 15:59N 55°57' W 004°53'2 2.2
2019-Sep-09 15:10N 55°58' W 004°50'210.5
2019-Sep-09 15:00N 55°57' W 004°53'1 2.2
2019-Sep-09 14:29N 55°58' W 004°51'1 2.1
2019-Sep-09 14:00N 55°57' W 004°52'0 0.4
2019-Sep-09 13:01N 55°57' W 004°52'110.3
2019-Sep-09 12:57N 55°57' W 004°53'1 0.7
2019-Sep-09 11:33N 55°57' W 004°51'010.6
2019-Sep-09 11:30N 55°57' W 004°52'1 0.9
2019-Sep-09 10:35N 55°57' W 004°51'110.5
2019-Sep-09 10:28N 55°57' W 004°53'1 0.9
2019-Sep-09 09:33N 55°57' W 004°52'110.6
2019-Sep-09 09:30N 55°57' W 004°52'0 0.4
2019-Sep-09 08:32N 55°57' W 004°52'110.9
2019-Sep-09 08:28N 55°57' W 004°53'0 0.3
2019-Sep-09 07:30N 55°57' W 004°52'1 1.8
2019-Sep-09 06:58N 55°58' W 004°51'0 0.7
2019-Sep-09 06:30N 55°57' W 004°51'1 0.0
2019-Sep-08 16:02N 55°57' W 004°52'010.5
2019-Sep-08 16:00N 55°57' W 004°53'2 2.5
2019-Sep-08 15:11N 55°58' W 004°49'210.4
2019-Sep-08 15:00N 55°57' W 004°52'0 0.2
2019-Sep-08 13:59N 55°57' W 004°53'1 1.9
2019-Sep-08 13:30N 55°58' W 004°52'1 1.8
2019-Sep-08 13:00N 55°57' W 004°53'0 0.0
2019-Sep-07 20:50N 55°57' W 004°52'1 3.6
2019-Sep-07 20:30N 55°57' W 004°55'2 2.3
2019-Sep-07 19:35N 55°58' W 004°51'110.4
2019-Sep-07 19:29N 55°57' W 004°53'2 2.6
2019-Sep-07 18:41N 55°58' W 004°49'210.4
2019-Sep-07 18:30N 55°57' W 004°52'1 2.0
2019-Sep-07 17:58N 55°58' W 004°51'1 2.4
2019-Sep-07 17:30N 55°57' W 004°52'2 2.2
2019-Sep-07 16:41N 55°58' W 004°49'210.6
2019-Sep-07 16:30N 55°57' W 004°53'2 2.8
2019-Sep-07 15:56N 55°58' W 004°50'1 2.9
2019-Sep-07 15:30N 55°57' W 004°52'1 1.9
2019-Sep-07 14:58N 55°58' W 004°51'1 0.2
2019-Sep-07 11:38N 55°58' W 004°50'110.3
2019-Sep-07 11:30N 55°57' W 004°52'0 0.3
2019-Sep-07 10:29N 55°57' W 004°53'2 2.2
2019-Sep-07 09:41N 55°58' W 004°50'210.0
2019-Sep-07 09:30N 55°57' W 004°53'2 2.5
2019-Sep-07 08:41N 55°58' W 004°49'210.1
2019-Sep-07 08:29N 55°57' W 004°53'  
Track history (hours):
 
Tides and Currents Weather Stations Pressure Air Temp Water Temp Dewpoint Dewpoint Depression Visibility Wind Speed Wind Dir Waves Ship Positions

Ali Cat

Operator: MRCC Clyde

Last reported at 2019-Sep-17 07:40 UTC. Time now 2019-Sep-17 08:27 UTC.
Position N 55°58' W 004°50'.

Length 19 m.

Type: Passenger vessel. MMSI: 235056506.

Date/timePositionNaut miles runAvg speedWind from/ knotsBaromVisibWave heightAir tempDewpointWater temp
2019-Sep-17 07:40N 55°58' W 004°50'210.0
2019-Sep-17 07:30N 55°57' W 004°52'1 1.1
2019-Sep-17 06:32N 55°58' W 004°51'110.1
2019-Sep-17 06:28N 55°57' W 004°52'1 1.6
2019-Sep-17 06:00N 55°57' W 004°53'1 0.1
2019-Sep-16 20:54N 55°58' W 004°51'2 4.6
2019-Sep-16 20:30N 55°57' W 004°54'3 3.3
2019-Sep-16 19:40N 55°58' W 004°49'210.9
2019-Sep-16 19:30N 55°57' W 004°52'2 2.2
2019-Sep-16 18:40N 55°58' W 004°49'210.3
2019-Sep-16 18:29N 55°57' W 004°53'2 2.5
2019-Sep-16 17:41N 55°58' W 004°49'210.7
2019-Sep-16 17:29N 55°57' W 004°53'2 1.8
2019-Sep-16 16:38N 55°58' W 004°50'110.1
2019-Sep-16 16:31N 55°57' W 004°52'1 1.1
2019-Sep-16 15:37N 55°58' W 004°51'110.1
2019-Sep-16 15:30N 55°57' W 004°53'2 1.5
2019-Sep-16 14:12N 55°58' W 004°49'210.1
2019-Sep-16 14:00N 55°57' W 004°53'2 2.5
2019-Sep-16 13:11N 55°58' W 004°49'210.2
2019-Sep-16 13:00N 55°57' W 004°52'1 0.4
2019-Sep-16 11:34N 55°57' W 004°52'110.2
2019-Sep-16 11:30N 55°57' W 004°53'2 2.4
2019-Sep-16 10:40N 55°58' W 004°50'210.5
2019-Sep-16 10:30N 55°57' W 004°53'1 1.4
2019-Sep-16 09:37N 55°58' W 004°51'110.5
2019-Sep-16 09:29N 55°57' W 004°53'2 1.9
2019-Sep-16 08:38N 55°58' W 004°50'110.2
2019-Sep-16 08:30N 55°57' W 004°52'1 1.0
2019-Sep-16 07:36N 55°58' W 004°51'1 9.8
2019-Sep-16 07:29N 55°57' W 004°53'2 2.7
2019-Sep-16 06:37N 55°58' W 004°49'110.1
2019-Sep-16 06:30N 55°57' W 004°51'0 0.0
2019-Sep-15 16:06N 55°58' W 004°51'110.5
2019-Sep-15 15:59N 55°57' W 004°53'2 2.6
2019-Sep-15 15:11N 55°58' W 004°49'210.5
2019-Sep-15 15:00N 55°57' W 004°52'1 1.1
2019-Sep-15 14:06N 55°58' W 004°51'110.3
2019-Sep-15 13:59N 55°57' W 004°53'2 1.8
2019-Sep-15 13:08N 55°58' W 004°50'110.3
2019-Sep-15 12:59N 55°57' W 004°53'1 0.1
2019-Sep-14 20:54N 55°58' W 004°51'1 0.9
2019-Sep-14 19:27N 55°57' W 004°53'2 2.7
2019-Sep-14 18:39N 55°58' W 004°49'210.9
2019-Sep-14 18:28N 55°57' W 004°53'0 0.3
2019-Sep-14 17:30N 55°57' W 004°52'0 0.3
2019-Sep-14 16:28N 55°57' W 004°53'1 1.3
2019-Sep-14 15:35N 55°57' W 004°51'110.9
2019-Sep-14 15:28N 55°57' W 004°53'2 0.3
2019-Sep-14 08:41N 55°58' W 004°50'211.5
2019-Sep-14 08:30N 55°57' W 004°53'2 1.9
2019-Sep-14 07:37N 55°58' W 004°50'211.4
2019-Sep-14 07:29N 55°57' W 004°53'1 2.7
2019-Sep-14 06:59N 55°58' W 004°51'1 1.3
2019-Sep-14 06:29N 55°57' W 004°52'1 1.2
2019-Sep-14 05:56N 55°58' W 004°51'0 0.0
2019-Sep-13 20:57N 55°58' W 004°51'2 3.4
2019-Sep-13 20:27N 55°57' W 004°54'2 1.8
2019-Sep-13 19:36N 55°58' W 004°51'110.1
2019-Sep-13 19:29N 55°57' W 004°53'1 2.4
2019-Sep-13 18:58N 55°58' W 004°51'1 2.4
2019-Sep-13 18:30N 55°57' W 004°52'1 1.2
2019-Sep-13 17:37N 55°58' W 004°51'1 9.7
2019-Sep-13 17:30N 55°57' W 004°53'2 2.8
2019-Sep-13 16:45N 55°58' W 004°49'2 9.3
2019-Sep-13 16:30N 55°57' W 004°53'2 2.9
2019-Sep-13 15:59N 55°58' W 004°51'2 3.4
2019-Sep-13 15:31N 55°57' W 004°53'2 3.1
2019-Sep-13 14:58N 55°58' W 004°50'0 0.4
2019-Sep-13 14:13N 55°58' W 004°50'2 9.6
2019-Sep-13 14:00N 55°57' W 004°53'1 1.5
2019-Sep-13 13:07N 55°57' W 004°51'1 9.5
2019-Sep-13 13:00N 55°57' W 004°53'1 0.5
2019-Sep-13 11:33N 55°57' W 004°52'110.4
2019-Sep-13 11:29N 55°57' W 004°53'1 1.6
2019-Sep-13 10:37N 55°58' W 004°50'110.5
2019-Sep-13 10:30N 55°57' W 004°52'0 0.3
2019-Sep-13 09:33N 55°57' W 004°52'110.3
2019-Sep-13 09:29N 55°57' W 004°53'1 2.8
2019-Sep-13 08:59N 55°58' W 004°51'1 2.9
2019-Sep-13 08:30N 55°57' W 004°53'1 1.9
2019-Sep-13 08:00N 55°58' W 004°52'1 1.4
2019-Sep-13 07:30N 55°57' W 004°53'2 2.2
2019-Sep-13 06:36N 55°58' W 004°49'110.1
2019-Sep-13 06:28N 55°57' W 004°51'1 1.7
2019-Sep-13 05:59N 55°58' W 004°53'1 0.1
2019-Sep-12 20:54N 55°58' W 004°51'2 5.6
2019-Sep-12 20:30N 55°57' W 004°55'3 3.9
2019-Sep-12 19:41N 55°58' W 004°49'211.1
2019-Sep-12 19:30N 55°57' W 004°53'2 1.9
2019-Sep-12 18:38N 55°58' W 004°50'210.6
2019-Sep-12 18:29N 55°57' W 004°53'1 1.3
2019-Sep-12 17:35N 55°58' W 004°51'110.7
2019-Sep-12 17:29N 55°57' W 004°53'1 1.8
2019-Sep-12 16:38N 55°58' W 004°50'110.2
2019-Sep-12 16:30N 55°57' W 004°53'2 3.3
2019-Sep-12 15:53N 55°58' W 004°49'2 5.2
2019-Sep-12 15:30N 55°57' W 004°53'2 1.5
2019-Sep-12 14:11N 55°58' W 004°49'2 9.9
2019-Sep-12 14:00N 55°57' W 004°53'2 2.7
2019-Sep-12 13:13N 55°58' W 004°49'2 9.9
2019-Sep-12 13:00N 55°57' W 004°52'1 0.8
2019-Sep-12 11:36N 55°58' W 004°51'110.3
2019-Sep-12 11:29N 55°57' W 004°53'1 1.1
2019-Sep-12 10:36N 55°57' W 004°51'110.5
2019-Sep-12 10:30N 55°57' W 004°53'1 0.8
2019-Sep-12 09:35N 55°58' W 004°51'110.4
2019-Sep-12 09:30N 55°57' W 004°53'2 1.8
2019-Sep-12 08:38N 55°58' W 004°50'110.5
2019-Sep-12 08:29N 55°57' W 004°53'2 2.7
2019-Sep-12 07:42N 55°58' W 004°49'210.2
2019-Sep-12 07:30N 55°57' W 004°53'1 1.2
2019-Sep-12 06:33N 55°58' W 004°51'110.1
2019-Sep-12 06:28N 55°57' W 004°52'2 0.2
2019-Sep-11 21:00N 55°58' W 004°49'3 6.2
2019-Sep-11 20:30N 55°57' W 004°55'3 3.5
2019-Sep-11 19:39N 55°58' W 004°49'211.2
2019-Sep-11 19:30N 55°57' W 004°52'2 2.4
2019-Sep-11 18:41N 55°58' W 004°49'211.0
2019-Sep-11 18:30N 55°57' W 004°53'2 2.2
2019-Sep-11 17:41N 55°58' W 004°50'210.5
2019-Sep-11 17:30N 55°57' W 004°53'0 0.2
2019-Sep-11 16:31N 55°57' W 004°52'010.3
2019-Sep-11 16:30N 55°57' W 004°52'1 0.9
2019-Sep-11 15:35N 55°57' W 004°51'110.3
2019-Sep-11 15:30N 55°57' W 004°53'1 2.0
2019-Sep-11 15:00N 55°58' W 004°51'1 1.6
2019-Sep-11 14:15N 55°58' W 004°49'2 9.6
2019-Sep-11 14:00N 55°57' W 004°53'2 2.2
2019-Sep-11 13:08N 55°58' W 004°50'110.0
2019-Sep-11 13:01N 55°57' W 004°52'2 1.4
2019-Sep-11 11:41N 55°58' W 004°49'210.4
2019-Sep-11 11:29N 55°57' W 004°53'2 2.2
2019-Sep-11 10:39N 55°58' W 004°50'210.8
2019-Sep-11 10:28N 55°57' W 004°53'2 2.7
2019-Sep-11 09:40N 55°58' W 004°49'210.7
2019-Sep-11 09:30N 55°57' W 004°52'1 1.0
2019-Sep-11 08:35N 55°58' W 004°51'110.8
2019-Sep-11 08:30N 55°57' W 004°52'2 1.7
2019-Sep-11 07:39N 55°58' W 004°50'211.1
2019-Sep-11 07:30N 55°57' W 004°52'0 0.3
2019-Sep-11 06:29N 55°57' W 004°52'1 0.1
2019-Sep-10 19:38N 55°58' W 004°51'211.8
2019-Sep-10 19:30N 55°57' W 004°53'2 1.8
2019-Sep-10 18:37N 55°58' W 004°51'111.8
2019-Sep-10 18:30N 55°58' W 004°53'1 0.8
2019-Sep-10 17:34N 55°58' W 004°51'111.7
2019-Sep-10 17:30N 55°57' W 004°53'1 0.5
2019-Sep-10 16:32N 55°57' W 004°52'111.4
2019-Sep-10 16:28N 55°57' W 004°53'1 1.3
2019-Sep-10 15:35N 55°58' W 004°51'110.6
2019-Sep-10 15:31N 55°57' W 004°52'0 0.1
2019-Sep-10 11:32N 55°57' W 004°52'110.9
2019-Sep-10 11:29N 55°57' W 004°53'1 1.3
2019-Sep-10 10:36N 55°58' W 004°51'110.5
2019-Sep-10 10:30N 55°57' W 004°53'2 2.0
2019-Sep-10 09:39N 55°58' W 004°50'210.4
2019-Sep-10 09:29N 55°57' W 004°53'1 2.3
2019-Sep-10 08:58N 55°58' W 004°51'1 2.8
2019-Sep-10 08:30N 55°57' W 004°53'2 2.1
2019-Sep-10 07:39N 55°58' W 004°50'210.7
2019-Sep-10 07:29N 55°57' W 004°53'2 2.5
2019-Sep-10 06:36N 55°58' W 004°49'110.6
2019-Sep-10 06:29N 55°57' W 004°51'1 1.2
2019-Sep-10 05:59N 55°57' W 004°52'0 0.0
2019-Sep-09 20:51N 55°57' W 004°53'2 3.5
2019-Sep-09 20:11N 55°58' W 004°49'210.7
2019-Sep-09 19:59N 55°57' W 004°53'1 1.7
2019-Sep-09 19:08N 55°58' W 004°50'110.4
2019-Sep-09 19:00N 55°57' W 004°53'1 0.9
2019-Sep-09 18:03N 55°57' W 004°51'110.4
2019-Sep-09 17:58N 55°57' W 004°53'1 1.5
2019-Sep-09 17:06N 55°58' W 004°51'110.4
2019-Sep-09 16:59N 55°57' W 004°53'1 1.6
2019-Sep-09 16:08N 55°58' W 004°50'110.4
2019-Sep-09 15:59N 55°57' W 004°53'2 2.2
2019-Sep-09 15:10N 55°58' W 004°50'210.5
2019-Sep-09 15:00N 55°57' W 004°53'1 2.2
2019-Sep-09 14:29N 55°58' W 004°51'1 2.1
2019-Sep-09 14:00N 55°57' W 004°52'0 0.4
2019-Sep-09 13:01N 55°57' W 004°52'110.3
2019-Sep-09 12:57N 55°57' W 004°53'1 0.7
2019-Sep-09 11:33N 55°57' W 004°51'010.6
2019-Sep-09 11:30N 55°57' W 004°52'1 0.9
2019-Sep-09 10:35N 55°57' W 004°51'110.5
2019-Sep-09 10:28N 55°57' W 004°53'1 0.9
2019-Sep-09 09:33N 55°57' W 004°52'110.6
2019-Sep-09 09:30N 55°57' W 004°52'0 0.4
2019-Sep-09 08:32N 55°57' W 004°52'110.9
2019-Sep-09 08:28N 55°57' W 004°53'0 0.3
2019-Sep-09 07:30N 55°57' W 004°52'1 1.8
2019-Sep-09 06:58N 55°58' W 004°51'0 0.7
2019-Sep-09 06:30N 55°57' W 004°51'1 0.0
2019-Sep-08 16:02N 55°57' W 004°52'010.5
2019-Sep-08 16:00N 55°57' W 004°53'2 2.5
2019-Sep-08 15:11N 55°58' W 004°49'210.4
2019-Sep-08 15:00N 55°57' W 004°52'0 0.2
2019-Sep-08 13:59N 55°57' W 004°53'1 1.9
2019-Sep-08 13:30N 55°58' W 004°52'1 1.8
2019-Sep-08 13:00N 55°57' W 004°53'0 0.0
2019-Sep-07 20:50N 55°57' W 004°52'1 3.6
2019-Sep-07 20:30N 55°57' W 004°55'2 2.3
2019-Sep-07 19:35N 55°58' W 004°51'110.4
2019-Sep-07 19:29N 55°57' W 004°53'2 2.6
2019-Sep-07 18:41N 55°58' W 004°49'210.4
2019-Sep-07 18:30N 55°57' W 004°52'1 2.0
2019-Sep-07 17:58N 55°58' W 004°51'1 2.4
2019-Sep-07 17:30N 55°57' W 004°52'2 2.2
2019-Sep-07 16:41N 55°58' W 004°49'210.6
2019-Sep-07 16:30N 55°57' W 004°53'2 2.8
2019-Sep-07 15:56N 55°58' W 004°50'1 2.9
2019-Sep-07 15:30N 55°57' W 004°52'1 1.9
2019-Sep-07 14:58N 55°58' W 004°51'1 0.2
2019-Sep-07 11:38N 55°58' W 004°50'110.3
2019-Sep-07 11:30N 55°57' W 004°52'0 0.3
2019-Sep-07 10:29N 55°57' W 004°53'2 2.2
2019-Sep-07 09:41N 55°58' W 004°50'210.0
2019-Sep-07 09:30N 55°57' W 004°53'2 2.5
2019-Sep-07 08:41N 55°58' W 004°49'210.1
2019-Sep-07 08:29N 55°57' W 004°53'  

Dump ship's entire track history